sensor_id;sensor_type;location;lat;lon;timestamp;P1;durP1;ratioP1;P2;durP2;ratioP2
75488;SDS011;64069;46.396;48.102;2023-02-04T00:01:37;62.25;;;17.33;;
75488;SDS011;64069;46.396;48.102;2023-02-04T00:04:03;56.63;;;14.88;;
75488;SDS011;64069;46.396;48.102;2023-02-04T00:06:29;51.50;;;15.50;;
75488;SDS011;64069;46.396;48.102;2023-02-04T00:08:55;50.83;;;17.33;;
75488;SDS011;64069;46.396;48.102;2023-02-04T00:11:21;58.97;;;17.42;;
75488;SDS011;64069;46.396;48.102;2023-02-04T00:13:47;51.10;;;16.60;;
75488;SDS011;64069;46.396;48.102;2023-02-04T00:16:13;56.30;;;17.02;;
75488;SDS011;64069;46.396;48.102;2023-02-04T00:18:39;55.08;;;18.55;;
75488;SDS011;64069;46.396;48.102;2023-02-04T00:21:05;51.70;;;16.95;;
75488;SDS011;64069;46.396;48.102;2023-02-04T00:23:31;54.63;;;16.27;;
75488;SDS011;64069;46.396;48.102;2023-02-04T00:25:57;55.90;;;15.75;;
75488;SDS011;64069;46.396;48.102;2023-02-04T00:28:22;48.95;;;13.73;;
75488;SDS011;64069;46.396;48.102;2023-02-04T00:30:48;56.53;;;15.35;;
75488;SDS011;64069;46.396;48.102;2023-02-04T00:33:15;63.95;;;19.35;;
75488;SDS011;64069;46.396;48.102;2023-02-04T00:35:41;54.00;;;16.10;;
75488;SDS011;64069;46.396;48.102;2023-02-04T00:38:07;58.45;;;17.15;;
75488;SDS011;64069;46.396;48.102;2023-02-04T00:40:33;50.63;;;17.02;;
75488;SDS011;64069;46.396;48.102;2023-02-04T00:42:59;44.20;;;14.35;;
75488;SDS011;64069;46.396;48.102;2023-02-04T00:45:25;45.55;;;13.30;;
75488;SDS011;64069;46.396;48.102;2023-02-04T00:47:51;49.60;;;14.52;;
75488;SDS011;64069;46.396;48.102;2023-02-04T00:50:17;50.75;;;14.45;;
75488;SDS011;64069;46.396;48.102;2023-02-04T00:52:43;55.67;;;15.77;;
75488;SDS011;64069;46.396;48.102;2023-02-04T00:55:09;59.80;;;18.63;;
75488;SDS011;64069;46.396;48.102;2023-02-04T00:57:36;51.05;;;13.77;;
75488;SDS011;64069;46.396;48.102;2023-02-04T01:00:04;40.63;;;14.10;;
75488;SDS011;64069;46.396;48.102;2023-02-04T01:02:30;54.70;;;16.15;;
75488;SDS011;64069;46.396;48.102;2023-02-04T01:04:56;53.35;;;15.40;;
75488;SDS011;64069;46.396;48.102;2023-02-04T01:07:22;50.47;;;14.90;;
75488;SDS011;64069;46.396;48.102;2023-02-04T01:09:48;53.45;;;14.90;;
75488;SDS011;64069;46.396;48.102;2023-02-04T01:12:14;47.30;;;13.90;;
75488;SDS011;64069;46.396;48.102;2023-02-04T01:14:40;42.72;;;13.07;;
75488;SDS011;64069;46.396;48.102;2023-02-04T01:17:06;47.53;;;14.25;;
75488;SDS011;64069;46.396;48.102;2023-02-04T01:19:32;41.38;;;12.52;;
75488;SDS011;64069;46.396;48.102;2023-02-04T01:21:58;51.90;;;15.65;;
75488;SDS011;64069;46.396;48.102;2023-02-04T01:24:24;45.55;;;14.35;;
75488;SDS011;64069;46.396;48.102;2023-02-04T01:27:08;50.17;;;15.05;;
75488;SDS011;64069;46.396;48.102;2023-02-04T01:29:34;45.28;;;15.25;;
75488;SDS011;64069;46.396;48.102;2023-02-04T01:32:00;39.45;;;13.13;;
75488;SDS011;64069;46.396;48.102;2023-02-04T01:34:26;42.60;;;12.93;;
75488;SDS011;64069;46.396;48.102;2023-02-04T01:36:55;53.08;;;16.65;;
75488;SDS011;64069;46.396;48.102;2023-02-04T01:39:21;49.03;;;15.13;;
75488;SDS011;64069;46.396;48.102;2023-02-04T01:41:47;56.72;;;17.08;;
75488;SDS011;64069;46.396;48.102;2023-02-04T01:44:13;60.30;;;15.75;;
75488;SDS011;64069;46.396;48.102;2023-02-04T01:46:39;48.47;;;14.73;;
75488;SDS011;64069;46.396;48.102;2023-02-04T01:49:05;41.13;;;12.40;;
75488;SDS011;64069;46.396;48.102;2023-02-04T01:51:31;49.33;;;16.50;;
75488;SDS011;64069;46.396;48.102;2023-02-04T01:53:58;47.53;;;14.98;;
75488;SDS011;64069;46.396;48.102;2023-02-04T01:56:25;44.53;;;13.82;;
75488;SDS011;64069;46.396;48.102;2023-02-04T01:58:52;47.70;;;16.85;;
75488;SDS011;64069;46.396;48.102;2023-02-04T02:04:11;45.25;;;14.05;;
75488;SDS011;64069;46.396;48.102;2023-02-04T02:06:41;40.63;;;13.18;;
75488;SDS011;64069;46.396;48.102;2023-02-04T02:09:10;50.73;;;16.07;;
75488;SDS011;64069;46.396;48.102;2023-02-04T02:11:36;34.78;;;11.05;;
75488;SDS011;64069;46.396;48.102;2023-02-04T02:14:02;38.78;;;12.55;;
75488;SDS011;64069;46.396;48.102;2023-02-04T02:16:29;42.10;;;12.05;;
75488;SDS011;64069;46.396;48.102;2023-02-04T02:18:55;50.63;;;16.15;;
75488;SDS011;64069;46.396;48.102;2023-02-04T02:21:33;48.80;;;14.43;;
75488;SDS011;64069;46.396;48.102;2023-02-04T02:24:22;43.15;;;14.80;;
75488;SDS011;64069;46.396;48.102;2023-02-04T02:26:53;42.20;;;12.27;;
75488;SDS011;64069;46.396;48.102;2023-02-04T02:29:23;52.55;;;15.35;;
75488;SDS011;64069;46.396;48.102;2023-02-04T02:31:49;41.80;;;10.70;;
75488;SDS011;64069;46.396;48.102;2023-02-04T02:34:16;50.38;;;16.17;;
75488;SDS011;64069;46.396;48.102;2023-02-04T02:36:42;51.83;;;14.65;;
75488;SDS011;64069;46.396;48.102;2023-02-04T02:39:08;34.78;;;12.38;;
75488;SDS011;64069;46.396;48.102;2023-02-04T02:41:35;29.13;;;10.65;;
75488;SDS011;64069;46.396;48.102;2023-02-04T02:44:01;47.80;;;13.55;;
75488;SDS011;64069;46.396;48.102;2023-02-04T02:46:27;48.83;;;14.35;;
75488;SDS011;64069;46.396;48.102;2023-02-04T02:48:53;32.13;;;10.80;;
75488;SDS011;64069;46.396;48.102;2023-02-04T02:51:19;54.72;;;16.63;;
75488;SDS011;64069;46.396;48.102;2023-02-04T02:53:45;36.38;;;11.18;;
75488;SDS011;64069;46.396;48.102;2023-02-04T02:56:13;36.25;;;11.35;;
75488;SDS011;64069;46.396;48.102;2023-02-04T02:58:40;50.50;;;15.02;;
75488;SDS011;64069;46.396;48.102;2023-02-04T03:01:07;44.10;;;12.38;;
75488;SDS011;64069;46.396;48.102;2023-02-04T03:03:41;35.53;;;10.70;;
75488;SDS011;64069;46.396;48.102;2023-02-04T03:06:15;39.65;;;11.95;;
75488;SDS011;64069;46.396;48.102;2023-02-04T03:08:46;46.47;;;13.68;;
75488;SDS011;64069;46.396;48.102;2023-02-04T03:11:16;28.43;;;10.67;;
75488;SDS011;64069;46.396;48.102;2023-02-04T03:13:42;51.17;;;14.80;;
75488;SDS011;64069;46.396;48.102;2023-02-04T03:16:09;35.70;;;11.68;;
75488;SDS011;64069;46.396;48.102;2023-02-04T03:18:35;49.80;;;12.38;;
75488;SDS011;64069;46.396;48.102;2023-02-04T03:21:02;31.77;;;10.35;;
75488;SDS011;64069;46.396;48.102;2023-02-04T03:23:30;42.05;;;12.77;;
75488;SDS011;64069;46.396;48.102;2023-02-04T03:25:58;42.75;;;11.35;;
75488;SDS011;64069;46.396;48.102;2023-02-04T03:28:25;39.42;;;11.88;;
75488;SDS011;64069;46.396;48.102;2023-02-04T03:30:51;34.30;;;10.25;;
75488;SDS011;64069;46.396;48.102;2023-02-04T03:33:23;49.15;;;13.70;;
75488;SDS011;64069;46.396;48.102;2023-02-04T03:35:51;39.40;;;13.23;;
75488;SDS011;64069;46.396;48.102;2023-02-04T03:38:17;41.10;;;12.50;;
75488;SDS011;64069;46.396;48.102;2023-02-04T03:40:43;39.10;;;13.48;;
75488;SDS011;64069;46.396;48.102;2023-02-04T03:43:09;38.53;;;11.00;;
75488;SDS011;64069;46.396;48.102;2023-02-04T03:45:35;41.45;;;11.52;;
75488;SDS011;64069;46.396;48.102;2023-02-04T03:48:01;45.10;;;14.05;;
75488;SDS011;64069;46.396;48.102;2023-02-04T03:50:27;45.08;;;15.93;;
75488;SDS011;64069;46.396;48.102;2023-02-04T03:52:53;41.30;;;13.10;;
75488;SDS011;64069;46.396;48.102;2023-02-04T03:55:19;47.35;;;13.73;;
75488;SDS011;64069;46.396;48.102;2023-02-04T03:57:45;53.97;;;14.50;;
75488;SDS011;64069;46.396;48.102;2023-02-04T04:00:11;48.03;;;15.43;;
75488;SDS011;64069;46.396;48.102;2023-02-04T04:02:38;48.78;;;14.50;;
75488;SDS011;64069;46.396;48.102;2023-02-04T04:05:05;48.58;;;13.88;;
75488;SDS011;64069;46.396;48.102;2023-02-04T04:07:32;47.15;;;14.50;;
75488;SDS011;64069;46.396;48.102;2023-02-04T04:09:58;48.90;;;13.75;;
75488;SDS011;64069;46.396;48.102;2023-02-04T04:12:24;41.40;;;13.60;;
75488;SDS011;64069;46.396;48.102;2023-02-04T04:14:50;44.25;;;13.13;;
75488;SDS011;64069;46.396;48.102;2023-02-04T04:17:15;36.63;;;11.63;;
75488;SDS011;64069;46.396;48.102;2023-02-04T04:19:41;50.08;;;13.07;;
75488;SDS011;64069;46.396;48.102;2023-02-04T04:22:09;38.53;;;12.15;;
75488;SDS011;64069;46.396;48.102;2023-02-04T04:24:35;45.72;;;12.85;;
75488;SDS011;64069;46.396;48.102;2023-02-04T04:27:02;41.25;;;13.50;;
75488;SDS011;64069;46.396;48.102;2023-02-04T04:29:28;38.17;;;11.77;;
75488;SDS011;64069;46.396;48.102;2023-02-04T04:31:54;39.20;;;11.98;;
75488;SDS011;64069;46.396;48.102;2023-02-04T04:34:20;35.13;;;11.13;;
75488;SDS011;64069;46.396;48.102;2023-02-04T04:36:46;36.40;;;12.45;;
75488;SDS011;64069;46.396;48.102;2023-02-04T04:39:12;47.08;;;16.23;;
75488;SDS011;64069;46.396;48.102;2023-02-04T04:41:38;38.42;;;10.65;;
75488;SDS011;64069;46.396;48.102;2023-02-04T04:44:04;50.92;;;15.18;;
75488;SDS011;64069;46.396;48.102;2023-02-04T04:46:31;41.38;;;12.15;;
75488;SDS011;64069;46.396;48.102;2023-02-04T04:48:56;50.17;;;13.82;;
75488;SDS011;64069;46.396;48.102;2023-02-04T04:51:22;39.25;;;10.50;;
75488;SDS011;64069;46.396;48.102;2023-02-04T04:53:48;38.72;;;10.88;;
75488;SDS011;64069;46.396;48.102;2023-02-04T04:56:15;55.72;;;13.23;;
75488;SDS011;64069;46.396;48.102;2023-02-04T04:58:43;28.80;;;10.70;;
75488;SDS011;64069;46.396;48.102;2023-02-04T05:03:36;45.15;;;12.95;;
75488;SDS011;64069;46.396;48.102;2023-02-04T05:06:02;40.25;;;11.63;;
75488;SDS011;64069;46.396;48.102;2023-02-04T05:08:28;47.03;;;13.73;;
75488;SDS011;64069;46.396;48.102;2023-02-04T05:10:54;31.70;;;11.55;;
75488;SDS011;64069;46.396;48.102;2023-02-04T05:13:20;47.55;;;13.95;;
75488;SDS011;64069;46.396;48.102;2023-02-04T05:15:48;49.92;;;13.07;;
75488;SDS011;64069;46.396;48.102;2023-02-04T05:18:14;46.85;;;13.20;;
75488;SDS011;64069;46.396;48.102;2023-02-04T05:20:40;41.45;;;12.85;;
75488;SDS011;64069;46.396;48.102;2023-02-04T05:23:06;39.70;;;11.55;;
75488;SDS011;64069;46.396;48.102;2023-02-04T05:25:32;42.03;;;13.50;;
75488;SDS011;64069;46.396;48.102;2023-02-04T05:27:58;36.42;;;11.98;;
75488;SDS011;64069;46.396;48.102;2023-02-04T05:30:24;40.38;;;12.75;;
75488;SDS011;64069;46.396;48.102;2023-02-04T05:32:49;38.78;;;11.07;;
75488;SDS011;64069;46.396;48.102;2023-02-04T05:35:15;38.58;;;12.00;;
75488;SDS011;64069;46.396;48.102;2023-02-04T05:37:42;48.70;;;14.73;;
75488;SDS011;64069;46.396;48.102;2023-02-04T05:40:08;42.42;;;11.90;;
75488;SDS011;64069;46.396;48.102;2023-02-04T05:42:34;38.42;;;11.77;;
75488;SDS011;64069;46.396;48.102;2023-02-04T05:45:00;45.38;;;14.10;;
75488;SDS011;64069;46.396;48.102;2023-02-04T05:47:26;44.50;;;12.20;;
75488;SDS011;64069;46.396;48.102;2023-02-04T05:49:56;37.95;;;10.52;;
75488;SDS011;64069;46.396;48.102;2023-02-04T05:52:22;38.03;;;11.60;;
75488;SDS011;64069;46.396;48.102;2023-02-04T05:54:48;49.83;;;14.68;;
75488;SDS011;64069;46.396;48.102;2023-02-04T05:57:14;48.10;;;13.07;;
75488;SDS011;64069;46.396;48.102;2023-02-04T05:59:40;48.75;;;14.38;;
75488;SDS011;64069;46.396;48.102;2023-02-04T06:02:06;35.20;;;11.15;;
75488;SDS011;64069;46.396;48.102;2023-02-04T06:04:32;38.17;;;11.93;;
75488;SDS011;64069;46.396;48.102;2023-02-04T06:06:58;39.17;;;12.70;;
75488;SDS011;64069;46.396;48.102;2023-02-04T06:09:27;35.67;;;11.20;;
75488;SDS011;64069;46.396;48.102;2023-02-04T06:11:53;36.47;;;11.43;;
75488;SDS011;64069;46.396;48.102;2023-02-04T06:14:19;46.20;;;17.95;;
75488;SDS011;64069;46.396;48.102;2023-02-04T06:16:48;38.85;;;11.52;;
75488;SDS011;64069;46.396;48.102;2023-02-04T06:19:14;38.28;;;11.93;;
75488;SDS011;64069;46.396;48.102;2023-02-04T06:21:39;38.75;;;12.73;;
75488;SDS011;64069;46.396;48.102;2023-02-04T06:24:05;34.72;;;12.00;;
75488;SDS011;64069;46.396;48.102;2023-02-04T06:26:31;65.82;;;19.70;;
75488;SDS011;64069;46.396;48.102;2023-02-04T06:28:57;41.45;;;11.52;;
75488;SDS011;64069;46.396;48.102;2023-02-04T06:31:23;33.42;;;8.15;;
75488;SDS011;64069;46.396;48.102;2023-02-04T06:33:49;44.05;;;12.52;;
75488;SDS011;64069;46.396;48.102;2023-02-04T06:36:18;33.88;;;10.73;;
75488;SDS011;64069;46.396;48.102;2023-02-04T06:38:44;33.20;;;9.77;;
75488;SDS011;64069;46.396;48.102;2023-02-04T06:41:10;30.83;;;8.95;;
75488;SDS011;64069;46.396;48.102;2023-02-04T06:43:40;42.17;;;12.95;;
75488;SDS011;64069;46.396;48.102;2023-02-04T06:46:05;34.22;;;10.23;;
75488;SDS011;64069;46.396;48.102;2023-02-04T06:48:31;33.65;;;11.90;;
75488;SDS011;64069;46.396;48.102;2023-02-04T06:50:58;38.88;;;10.73;;
75488;SDS011;64069;46.396;48.102;2023-02-04T06:53:24;46.25;;;18.38;;
75488;SDS011;64069;46.396;48.102;2023-02-04T06:55:50;35.72;;;12.40;;
75488;SDS011;64069;46.396;48.102;2023-02-04T06:58:17;38.72;;;10.95;;
75488;SDS011;64069;46.396;48.102;2023-02-04T07:00:43;31.77;;;11.43;;
75488;SDS011;64069;46.396;48.102;2023-02-04T07:03:09;37.25;;;13.60;;
75488;SDS011;64069;46.396;48.102;2023-02-04T07:05:35;32.28;;;9.95;;
75488;SDS011;64069;46.396;48.102;2023-02-04T07:08:01;35.67;;;12.32;;
75488;SDS011;64069;46.396;48.102;2023-02-04T07:10:27;55.20;;;23.60;;
75488;SDS011;64069;46.396;48.102;2023-02-04T07:12:53;33.15;;;10.70;;
75488;SDS011;64069;46.396;48.102;2023-02-04T07:15:19;34.25;;;10.77;;
75488;SDS011;64069;46.396;48.102;2023-02-04T07:17:45;32.78;;;9.88;;
75488;SDS011;64069;46.396;48.102;2023-02-04T07:20:11;38.83;;;10.50;;
75488;SDS011;64069;46.396;48.102;2023-02-04T07:22:37;36.63;;;9.32;;
75488;SDS011;64069;46.396;48.102;2023-02-04T07:25:03;33.85;;;9.48;;
75488;SDS011;64069;46.396;48.102;2023-02-04T07:27:30;33.95;;;8.77;;
75488;SDS011;64069;46.396;48.102;2023-02-04T07:29:56;27.15;;;8.60;;
75488;SDS011;64069;46.396;48.102;2023-02-04T07:32:21;28.15;;;8.52;;
75488;SDS011;64069;46.396;48.102;2023-02-04T07:34:47;28.85;;;9.75;;
75488;SDS011;64069;46.396;48.102;2023-02-04T07:37:18;29.60;;;10.60;;
75488;SDS011;64069;46.396;48.102;2023-02-04T07:39:44;49.97;;;16.83;;
75488;SDS011;64069;46.396;48.102;2023-02-04T07:42:10;30.27;;;10.02;;
75488;SDS011;64069;46.396;48.102;2023-02-04T07:44:43;28.27;;;10.73;;
75488;SDS011;64069;46.396;48.102;2023-02-04T07:47:09;29.88;;;9.88;;
75488;SDS011;64069;46.396;48.102;2023-02-04T07:49:37;30.65;;;11.27;;
75488;SDS011;64069;46.396;48.102;2023-02-04T07:52:03;27.35;;;9.10;;
75488;SDS011;64069;46.396;48.102;2023-02-04T07:54:29;22.55;;;8.18;;
75488;SDS011;64069;46.396;48.102;2023-02-04T07:56:55;26.88;;;9.63;;
75488;SDS011;64069;46.396;48.102;2023-02-04T07:59:21;32.78;;;10.07;;
75488;SDS011;64069;46.396;48.102;2023-02-04T08:01:47;29.77;;;9.68;;
75488;SDS011;64069;46.396;48.102;2023-02-04T08:04:14;26.98;;;9.05;;
75488;SDS011;64069;46.396;48.102;2023-02-04T08:06:40;27.90;;;9.38;;
75488;SDS011;64069;46.396;48.102;2023-02-04T08:09:06;36.15;;;10.30;;
75488;SDS011;64069;46.396;48.102;2023-02-04T08:11:32;21.13;;;7.78;;
75488;SDS011;64069;46.396;48.102;2023-02-04T08:13:58;21.45;;;7.90;;
75488;SDS011;64069;46.396;48.102;2023-02-04T08:16:24;33.58;;;12.18;;
75488;SDS011;64069;46.396;48.102;2023-02-04T08:18:49;27.75;;;9.18;;
75488;SDS011;64069;46.396;48.102;2023-02-04T08:21:16;25.58;;;7.65;;
75488;SDS011;64069;46.396;48.102;2023-02-04T08:23:41;22.60;;;8.48;;
75488;SDS011;64069;46.396;48.102;2023-02-04T08:26:08;21.92;;;9.23;;
75488;SDS011;64069;46.396;48.102;2023-02-04T08:28:38;21.08;;;7.72;;
75488;SDS011;64069;46.396;48.102;2023-02-04T08:31:05;33.88;;;12.80;;
75488;SDS011;64069;46.396;48.102;2023-02-04T08:33:31;20.27;;;7.93;;
75488;SDS011;64069;46.396;48.102;2023-02-04T08:35:57;18.23;;;6.75;;
75488;SDS011;64069;46.396;48.102;2023-02-04T08:38:23;28.60;;;9.52;;
75488;SDS011;64069;46.396;48.102;2023-02-04T08:40:49;23.88;;;8.95;;
75488;SDS011;64069;46.396;48.102;2023-02-04T08:43:16;23.48;;;8.60;;
75488;SDS011;64069;46.396;48.102;2023-02-04T08:45:42;22.50;;;8.25;;
75488;SDS011;64069;46.396;48.102;2023-02-04T08:48:08;38.30;;;10.02;;
75488;SDS011;64069;46.396;48.102;2023-02-04T08:50:34;29.65;;;10.13;;
75488;SDS011;64069;46.396;48.102;2023-02-04T08:53:00;23.13;;;7.82;;
75488;SDS011;64069;46.396;48.102;2023-02-04T08:55:26;24.58;;;9.82;;
75488;SDS011;64069;46.396;48.102;2023-02-04T08:57:51;21.95;;;8.13;;
75488;SDS011;64069;46.396;48.102;2023-02-04T09:00:17;22.55;;;9.57;;
75488;SDS011;64069;46.396;48.102;2023-02-04T09:02:43;22.58;;;7.72;;
75488;SDS011;64069;46.396;48.102;2023-02-04T09:05:09;18.58;;;8.35;;
75488;SDS011;64069;46.396;48.102;2023-02-04T09:07:35;20.38;;;7.30;;
75488;SDS011;64069;46.396;48.102;2023-02-04T09:10:01;25.20;;;10.02;;
75488;SDS011;64069;46.396;48.102;2023-02-04T09:12:30;19.67;;;7.65;;
75488;SDS011;64069;46.396;48.102;2023-02-04T09:14:56;20.77;;;7.18;;
75488;SDS011;64069;46.396;48.102;2023-02-04T09:17:22;19.98;;;6.80;;
75488;SDS011;64069;46.396;48.102;2023-02-04T09:19:48;15.50;;;5.63;;
75488;SDS011;64069;46.396;48.102;2023-02-04T09:22:14;23.92;;;8.55;;
75488;SDS011;64069;46.396;48.102;2023-02-04T09:24:40;18.77;;;7.07;;
75488;SDS011;64069;46.396;48.102;2023-02-04T09:27:06;19.65;;;8.63;;
75488;SDS011;64069;46.396;48.102;2023-02-04T09:29:32;26.83;;;9.10;;
75488;SDS011;64069;46.396;48.102;2023-02-04T09:31:58;14.38;;;6.18;;
75488;SDS011;64069;46.396;48.102;2023-02-04T09:34:24;15.13;;;5.93;;
75488;SDS011;64069;46.396;48.102;2023-02-04T09:36:50;20.13;;;8.27;;
75488;SDS011;64069;46.396;48.102;2023-02-04T09:39:16;24.27;;;10.50;;
75488;SDS011;64069;46.396;48.102;2023-02-04T09:41:42;17.10;;;5.07;;
75488;SDS011;64069;46.396;48.102;2023-02-04T09:44:18;20.42;;;8.52;;
75488;SDS011;64069;46.396;48.102;2023-02-04T09:46:48;19.50;;;7.75;;
75488;SDS011;64069;46.396;48.102;2023-02-04T09:49:16;17.10;;;7.05;;
75488;SDS011;64069;46.396;48.102;2023-02-04T09:51:42;25.08;;;10.13;;
75488;SDS011;64069;46.396;48.102;2023-02-04T09:54:14;22.05;;;7.35;;
75488;SDS011;64069;46.396;48.102;2023-02-04T09:56:41;15.57;;;6.38;;
75488;SDS011;64069;46.396;48.102;2023-02-04T09:59:18;27.77;;;9.73;;
75488;SDS011;64069;46.396;48.102;2023-02-04T10:01:50;21.17;;;8.70;;
75488;SDS011;64069;46.396;48.102;2023-02-04T10:04:25;20.83;;;7.50;;
75488;SDS011;64069;46.396;48.102;2023-02-04T10:06:53;22.95;;;9.45;;
75488;SDS011;64069;46.396;48.102;2023-02-04T10:09:22;22.48;;;7.10;;
75488;SDS011;64069;46.396;48.102;2023-02-04T10:11:48;23.80;;;9.25;;
75488;SDS011;64069;46.396;48.102;2023-02-04T10:14:19;24.65;;;9.27;;
75488;SDS011;64069;46.396;48.102;2023-02-04T10:16:50;19.50;;;6.70;;
75488;SDS011;64069;46.396;48.102;2023-02-04T10:19:19;21.55;;;8.07;;
75488;SDS011;64069;46.396;48.102;2023-02-04T10:21:46;21.02;;;6.47;;
75488;SDS011;64069;46.396;48.102;2023-02-04T10:24:15;26.60;;;8.63;;
75488;SDS011;64069;46.396;48.102;2023-02-04T10:26:44;22.90;;;10.68;;
75488;SDS011;64069;46.396;48.102;2023-02-04T10:29:17;18.88;;;7.80;;
75488;SDS011;64069;46.396;48.102;2023-02-04T10:31:46;22.25;;;6.85;;
75488;SDS011;64069;46.396;48.102;2023-02-04T10:36:42;22.30;;;8.43;;
75488;SDS011;64069;46.396;48.102;2023-02-04T10:39:13;21.02;;;7.70;;
75488;SDS011;64069;46.396;48.102;2023-02-04T10:41:55;19.92;;;7.38;;
75488;SDS011;64069;46.396;48.102;2023-02-04T10:44:27;19.30;;;7.45;;
75488;SDS011;64069;46.396;48.102;2023-02-04T10:49:24;21.25;;;7.45;;
75488;SDS011;64069;46.396;48.102;2023-02-04T10:51:51;21.38;;;7.35;;
75488;SDS011;64069;46.396;48.102;2023-02-04T10:54:18;18.08;;;7.55;;
75488;SDS011;64069;46.396;48.102;2023-02-04T10:56:59;17.15;;;6.47;;
75488;SDS011;64069;46.396;48.102;2023-02-04T10:59:49;26.20;;;10.18;;
75488;SDS011;64069;46.396;48.102;2023-02-04T11:05:08;23.40;;;9.73;;
75488;SDS011;64069;46.396;48.102;2023-02-04T11:07:42;21.30;;;8.40;;
75488;SDS011;64069;46.396;48.102;2023-02-04T11:10:13;22.48;;;8.57;;
75488;SDS011;64069;46.396;48.102;2023-02-04T11:18:30;18.65;;;7.82;;
75488;SDS011;64069;46.396;48.102;2023-02-04T11:20:56;21.77;;;8.88;;
75488;SDS011;64069;46.396;48.102;2023-02-04T11:28:43;21.23;;;7.80;;
75488;SDS011;64069;46.396;48.102;2023-02-04T11:31:26;19.17;;;7.07;;
75488;SDS011;64069;46.396;48.102;2023-02-04T11:34:43;23.88;;;8.57;;
75488;SDS011;64069;46.396;48.102;2023-02-04T11:39:40;19.83;;;7.07;;
75488;SDS011;64069;46.396;48.102;2023-02-04T11:45:34;21.45;;;8.60;;
75488;SDS011;64069;46.396;48.102;2023-02-04T11:47:37;20.92;;;6.80;;
75488;SDS011;64069;46.396;48.102;2023-02-04T11:50:10;22.13;;;8.50;;
75488;SDS011;64069;46.396;48.102;2023-02-04T11:52:53;19.60;;;7.50;;
75488;SDS011;64069;46.396;48.102;2023-02-04T11:55:27;17.48;;;7.00;;
75488;SDS011;64069;46.396;48.102;2023-02-04T11:57:54;19.40;;;7.22;;
75488;SDS011;64069;46.396;48.102;2023-02-04T12:00:25;19.77;;;7.32;;
75488;SDS011;64069;46.396;48.102;2023-02-04T12:02:54;17.63;;;6.03;;
75488;SDS011;64069;46.396;48.102;2023-02-04T12:05:35;20.23;;;7.75;;
75488;SDS011;64069;46.396;48.102;2023-02-04T12:08:09;20.77;;;7.72;;
75488;SDS011;64069;46.396;48.102;2023-02-04T12:10:36;19.98;;;8.43;;
75488;SDS011;64069;46.396;48.102;2023-02-04T12:13:10;18.20;;;7.15;;
75488;SDS011;64069;46.396;48.102;2023-02-04T12:15:40;20.77;;;7.45;;
75488;SDS011;64069;46.396;48.102;2023-02-04T12:18:07;23.40;;;7.45;;
75488;SDS011;64069;46.396;48.102;2023-02-04T12:20:37;24.98;;;9.75;;
75488;SDS011;64069;46.396;48.102;2023-02-04T12:23:03;20.85;;;8.65;;
75488;SDS011;64069;46.396;48.102;2023-02-04T12:25:30;26.05;;;8.82;;
75488;SDS011;64069;46.396;48.102;2023-02-04T12:27:59;22.80;;;8.35;;
75488;SDS011;64069;46.396;48.102;2023-02-04T12:30:25;24.13;;;8.93;;
75488;SDS011;64069;46.396;48.102;2023-02-04T12:32:51;23.92;;;8.55;;
75488;SDS011;64069;46.396;48.102;2023-02-04T12:35:17;24.58;;;7.88;;
75488;SDS011;64069;46.396;48.102;2023-02-04T12:37:44;25.67;;;8.13;;
75488;SDS011;64069;46.396;48.102;2023-02-04T12:40:13;14.93;;;6.13;;
75488;SDS011;64069;46.396;48.102;2023-02-04T12:42:48;16.85;;;6.18;;
75488;SDS011;64069;46.396;48.102;2023-02-04T12:45:14;19.80;;;8.00;;
75488;SDS011;64069;46.396;48.102;2023-02-04T12:47:41;23.23;;;7.95;;
75488;SDS011;64069;46.396;48.102;2023-02-04T12:50:08;27.00;;;8.70;;
75488;SDS011;64069;46.396;48.102;2023-02-04T12:52:36;26.17;;;8.00;;
75488;SDS011;64069;46.396;48.102;2023-02-04T12:55:03;21.83;;;7.47;;
75488;SDS011;64069;46.396;48.102;2023-02-04T12:57:31;24.50;;;8.50;;
75488;SDS011;64069;46.396;48.102;2023-02-04T12:59:57;26.23;;;8.00;;
75488;SDS011;64069;46.396;48.102;2023-02-04T13:02:26;16.42;;;6.03;;
75488;SDS011;64069;46.396;48.102;2023-02-04T13:04:52;22.58;;;7.40;;
75488;SDS011;64069;46.396;48.102;2023-02-04T13:07:19;24.58;;;8.20;;
75488;SDS011;64069;46.396;48.102;2023-02-04T13:09:45;17.33;;;6.47;;
75488;SDS011;64069;46.396;48.102;2023-02-04T13:12:12;16.80;;;6.03;;
75488;SDS011;64069;46.396;48.102;2023-02-04T13:14:39;19.33;;;8.20;;
75488;SDS011;64069;46.396;48.102;2023-02-04T13:17:05;19.90;;;7.32;;
75488;SDS011;64069;46.396;48.102;2023-02-04T13:19:35;22.90;;;6.30;;
75488;SDS011;64069;46.396;48.102;2023-02-04T13:22:01;25.15;;;7.70;;
75488;SDS011;64069;46.396;48.102;2023-02-04T13:24:27;19.73;;;7.38;;
75488;SDS011;64069;46.396;48.102;2023-02-04T13:26:54;23.33;;;7.75;;
75488;SDS011;64069;46.396;48.102;2023-02-04T13:29:20;25.48;;;9.43;;
75488;SDS011;64069;46.396;48.102;2023-02-04T13:31:46;17.92;;;8.02;;
75488;SDS011;64069;46.396;48.102;2023-02-04T13:34:12;25.33;;;8.50;;
75488;SDS011;64069;46.396;48.102;2023-02-04T13:36:39;21.52;;;7.68;;
75488;SDS011;64069;46.396;48.102;2023-02-04T13:39:05;23.50;;;7.25;;
75488;SDS011;64069;46.396;48.102;2023-02-04T13:41:31;32.10;;;8.80;;
75488;SDS011;64069;46.396;48.102;2023-02-04T13:43:59;25.05;;;7.78;;
75488;SDS011;64069;46.396;48.102;2023-02-04T13:46:25;21.02;;;7.97;;
75488;SDS011;64069;46.396;48.102;2023-02-04T13:48:51;24.23;;;8.57;;
75488;SDS011;64069;46.396;48.102;2023-02-04T13:51:17;23.90;;;7.50;;
75488;SDS011;64069;46.396;48.102;2023-02-04T13:53:43;28.67;;;10.05;;
75488;SDS011;64069;46.396;48.102;2023-02-04T13:56:09;30.58;;;9.45;;
75488;SDS011;64069;46.396;48.102;2023-02-04T13:58:35;36.00;;;11.52;;
75488;SDS011;64069;46.396;48.102;2023-02-04T14:01:01;21.42;;;7.93;;
75488;SDS011;64069;46.396;48.102;2023-02-04T14:03:28;23.38;;;7.97;;
75488;SDS011;64069;46.396;48.102;2023-02-04T14:05:57;25.27;;;8.85;;
75488;SDS011;64069;46.396;48.102;2023-02-04T14:08:23;28.52;;;9.85;;
75488;SDS011;64069;46.396;48.102;2023-02-04T14:10:49;43.58;;;12.80;;
75488;SDS011;64069;46.396;48.102;2023-02-04T14:13:15;25.30;;;9.80;;
75488;SDS011;64069;46.396;48.102;2023-02-04T14:15:41;35.50;;;13.13;;
75488;SDS011;64069;46.396;48.102;2023-02-04T14:18:10;43.22;;;12.93;;
75488;SDS011;64069;46.396;48.102;2023-02-04T14:20:37;32.70;;;12.13;;
75488;SDS011;64069;46.396;48.102;2023-02-04T14:23:04;31.13;;;11.48;;
75488;SDS011;64069;46.396;48.102;2023-02-04T14:25:31;21.10;;;8.65;;
75488;SDS011;64069;46.396;48.102;2023-02-04T14:27:57;31.05;;;11.70;;
75488;SDS011;64069;46.396;48.102;2023-02-04T14:30:24;21.48;;;8.82;;
75488;SDS011;64069;46.396;48.102;2023-02-04T14:32:52;28.10;;;9.73;;
75488;SDS011;64069;46.396;48.102;2023-02-04T14:35:19;23.17;;;9.27;;
75488;SDS011;64069;46.396;48.102;2023-02-04T14:37:52;22.20;;;8.90;;
75488;SDS011;64069;46.396;48.102;2023-02-04T14:40:18;22.50;;;8.02;;
75488;SDS011;64069;46.396;48.102;2023-02-04T14:42:45;24.05;;;8.95;;
75488;SDS011;64069;46.396;48.102;2023-02-04T14:45:11;25.27;;;10.05;;